sensor_id;sensor_type;location;lat;lon;timestamp;temperature;humidity
66598;DHT22;57424;53.128;6.406;2022-07-29T00:02:12;22.30;52.50
66598;DHT22;57424;53.128;6.406;2022-07-29T00:04:37;22.30;52.50
66598;DHT22;57424;53.128;6.406;2022-07-29T00:07:04;22.30;52.50
66598;DHT22;57424;53.128;6.406;2022-07-29T00:09:30;22.30;52.50
66598;DHT22;57424;53.128;6.406;2022-07-29T00:11:59;22.30;52.50
66598;DHT22;57424;53.128;6.406;2022-07-29T00:14:25;22.30;52.60
66598;DHT22;57424;53.128;6.406;2022-07-29T00:16:51;22.30;52.50
66598;DHT22;57424;53.128;6.406;2022-07-29T00:19:16;22.30;52.60
66598;DHT22;57424;53.128;6.406;2022-07-29T00:21:42;22.30;52.60
66598;DHT22;57424;53.128;6.406;2022-07-29T00:24:07;22.30;52.60
66598;DHT22;57424;53.128;6.406;2022-07-29T00:26:33;22.30;52.60
66598;DHT22;57424;53.128;6.406;2022-07-29T00:29:01;22.30;52.60
66598;DHT22;57424;53.128;6.406;2022-07-29T00:31:26;22.30;52.60
66598;DHT22;57424;53.128;6.406;2022-07-29T00:33:53;22.30;52.60
66598;DHT22;57424;53.128;6.406;2022-07-29T00:36:18;22.30;52.60
66598;DHT22;57424;53.128;6.406;2022-07-29T00:38:49;22.30;52.60
66598;DHT22;57424;53.128;6.406;2022-07-29T00:41:15;22.30;52.70
66598;DHT22;57424;53.128;6.406;2022-07-29T00:43:41;22.20;52.60
66598;DHT22;57424;53.128;6.406;2022-07-29T00:46:07;22.30;52.70
66598;DHT22;57424;53.128;6.406;2022-07-29T00:48:33;22.20;52.70
66598;DHT22;57424;53.128;6.406;2022-07-29T00:51:00;22.20;52.60
66598;DHT22;57424;53.128;6.406;2022-07-29T00:53:27;22.20;52.70
66598;DHT22;57424;53.128;6.406;2022-07-29T00:55:56;22.20;52.70
66598;DHT22;57424;53.128;6.406;2022-07-29T00:58:23;22.20;52.70
66598;DHT22;57424;53.128;6.406;2022-07-29T01:00:49;22.20;52.70
66598;DHT22;57424;53.128;6.406;2022-07-29T01:03:14;22.20;52.70
66598;DHT22;57424;53.128;6.406;2022-07-29T01:05:41;22.10;52.70
66598;DHT22;57424;53.128;6.406;2022-07-29T01:08:08;22.10;52.60
66598;DHT22;57424;53.128;6.406;2022-07-29T01:10:37;22.20;52.70
66598;DHT22;57424;53.128;6.406;2022-07-29T01:13:04;22.20;52.70
66598;DHT22;57424;53.128;6.406;2022-07-29T01:15:30;22.20;52.70
66598;DHT22;57424;53.128;6.406;2022-07-29T01:18:16;22.20;52.70
66598;DHT22;57424;53.128;6.406;2022-07-29T01:24:00;22.20;52.70
66598;DHT22;57424;53.128;6.406;2022-07-29T01:26:49;22.10;52.70
66598;DHT22;57424;53.128;6.406;2022-07-29T01:31:56;22.10;52.70
66598;DHT22;57424;53.128;6.406;2022-07-29T01:34:30;22.10;52.70
66598;DHT22;57424;53.128;6.406;2022-07-29T01:37:23;22.10;52.80
66598;DHT22;57424;53.128;6.406;2022-07-29T01:39:52;22.10;52.70
66598;DHT22;57424;53.128;6.406;2022-07-29T01:45:05;22.10;52.80
66598;DHT22;57424;53.128;6.406;2022-07-29T01:47:39;22.10;52.80
66598;DHT22;57424;53.128;6.406;2022-07-29T01:50:08;22.10;52.80
66598;DHT22;57424;53.128;6.406;2022-07-29T01:52:52;22.10;52.90
66598;DHT22;57424;53.128;6.406;2022-07-29T01:55:20;22.10;52.80
66598;DHT22;57424;53.128;6.406;2022-07-29T01:57:48;22.00;52.80
66598;DHT22;57424;53.128;6.406;2022-07-29T02:00:14;22.10;52.90
66598;DHT22;57424;53.128;6.406;2022-07-29T02:02:43;22.00;52.80
66598;DHT22;57424;53.128;6.406;2022-07-29T02:05:13;22.00;52.80
66598;DHT22;57424;53.128;6.406;2022-07-29T02:07:42;22.00;52.80
66598;DHT22;57424;53.128;6.406;2022-07-29T02:10:09;22.00;52.80
66598;DHT22;57424;53.128;6.406;2022-07-29T02:12:36;22.00;52.80
66598;DHT22;57424;53.128;6.406;2022-07-29T02:15:04;22.00;52.80
66598;DHT22;57424;53.128;6.406;2022-07-29T02:17:38;22.00;52.80
66598;DHT22;57424;53.128;6.406;2022-07-29T02:20:05;22.00;52.80
66598;DHT22;57424;53.128;6.406;2022-07-29T02:22:34;22.00;52.80
66598;DHT22;57424;53.128;6.406;2022-07-29T02:25:01;22.00;52.80
66598;DHT22;57424;53.128;6.406;2022-07-29T02:27:28;22.00;52.80
66598;DHT22;57424;53.128;6.406;2022-07-29T02:29:54;22.00;52.80
66598;DHT22;57424;53.128;6.406;2022-07-29T02:32:21;22.00;52.90
66598;DHT22;57424;53.128;6.406;2022-07-29T02:34:48;22.00;52.80
66598;DHT22;57424;53.128;6.406;2022-07-29T02:37:15;22.00;52.90
66598;DHT22;57424;53.128;6.406;2022-07-29T02:39:44;22.00;52.80
66598;DHT22;57424;53.128;6.406;2022-07-29T02:42:14;22.00;52.90
66598;DHT22;57424;53.128;6.406;2022-07-29T02:44:40;22.00;52.80
66598;DHT22;57424;53.128;6.406;2022-07-29T02:50:07;22.00;52.90
66598;DHT22;57424;53.128;6.406;2022-07-29T02:53:01;22.00;52.80
66598;DHT22;57424;53.128;6.406;2022-07-29T02:55:40;21.90;52.80
66598;DHT22;57424;53.128;6.406;2022-07-29T02:58:17;21.90;52.80
66598;DHT22;57424;53.128;6.406;2022-07-29T03:00:48;21.90;52.80
66598;DHT22;57424;53.128;6.406;2022-07-29T03:03:18;21.90;52.80
66598;DHT22;57424;53.128;6.406;2022-07-29T03:05:44;21.90;52.80
66598;DHT22;57424;53.128;6.406;2022-07-29T03:08:11;21.90;52.80
66598;DHT22;57424;53.128;6.406;2022-07-29T03:10:43;21.90;52.80
66598;DHT22;57424;53.128;6.406;2022-07-29T03:13:10;21.90;52.80
66598;DHT22;57424;53.128;6.406;2022-07-29T03:15:37;21.90;52.80
66598;DHT22;57424;53.128;6.406;2022-07-29T03:18:03;21.90;52.80
66598;DHT22;57424;53.128;6.406;2022-07-29T03:20:31;21.90;52.90
66598;DHT22;57424;53.128;6.406;2022-07-29T03:22:56;21.80;52.80
66598;DHT22;57424;53.128;6.406;2022-07-29T03:25:22;21.90;52.80
66598;DHT22;57424;53.128;6.406;2022-07-29T03:27:48;21.90;52.90
66598;DHT22;57424;53.128;6.406;2022-07-29T03:30:14;21.90;52.90
66598;DHT22;57424;53.128;6.406;2022-07-29T03:32:41;21.90;52.80
66598;DHT22;57424;53.128;6.406;2022-07-29T03:35:07;21.80;52.80
66598;DHT22;57424;53.128;6.406;2022-07-29T03:37:33;21.90;52.90
66598;DHT22;57424;53.128;6.406;2022-07-29T03:40:03;21.80;52.80
66598;DHT22;57424;53.128;6.406;2022-07-29T03:42:35;21.90;52.90
66598;DHT22;57424;53.128;6.406;2022-07-29T03:45:05;21.90;52.80
66598;DHT22;57424;53.128;6.406;2022-07-29T03:47:31;21.90;52.80
66598;DHT22;57424;53.128;6.406;2022-07-29T03:50:05;21.80;52.80
66598;DHT22;57424;53.128;6.406;2022-07-29T03:52:31;21.80;52.80
66598;DHT22;57424;53.128;6.406;2022-07-29T03:54:57;21.80;52.90
66598;DHT22;57424;53.128;6.406;2022-07-29T03:57:27;21.80;53.50
66598;DHT22;57424;53.128;6.406;2022-07-29T03:59:54;21.80;52.80
66598;DHT22;57424;53.128;6.406;2022-07-29T04:02:20;21.80;52.80
66598;DHT22;57424;53.128;6.406;2022-07-29T04:04:46;21.80;52.80
66598;DHT22;57424;53.128;6.406;2022-07-29T04:07:13;21.80;52.80
66598;DHT22;57424;53.128;6.406;2022-07-29T04:09:39;21.80;52.80
66598;DHT22;57424;53.128;6.406;2022-07-29T04:12:05;21.80;52.80
66598;DHT22;57424;53.128;6.406;2022-07-29T04:14:32;21.80;52.90
66598;DHT22;57424;53.128;6.406;2022-07-29T04:16:58;21.80;52.90
66598;DHT22;57424;53.128;6.406;2022-07-29T04:19:23;21.80;52.90
66598;DHT22;57424;53.128;6.406;2022-07-29T04:21:49;21.80;52.80
66598;DHT22;57424;53.128;6.406;2022-07-29T04:24:15;21.80;52.90
66598;DHT22;57424;53.128;6.406;2022-07-29T04:26:41;21.80;52.90
66598;DHT22;57424;53.128;6.406;2022-07-29T04:29:06;21.80;52.90
66598;DHT22;57424;53.128;6.406;2022-07-29T04:31:32;21.80;52.90
66598;DHT22;57424;53.128;6.406;2022-07-29T04:33:57;21.80;52.90
66598;DHT22;57424;53.128;6.406;2022-07-29T04:36:23;21.80;52.90
66598;DHT22;57424;53.128;6.406;2022-07-29T04:38:48;21.80;52.90
66598;DHT22;57424;53.128;6.406;2022-07-29T04:41:14;21.80;52.90
66598;DHT22;57424;53.128;6.406;2022-07-29T04:43:39;21.80;52.90
66598;DHT22;57424;53.128;6.406;2022-07-29T04:46:06;21.80;52.90
66598;DHT22;57424;53.128;6.406;2022-07-29T04:48:32;21.70;52.80
66598;DHT22;57424;53.128;6.406;2022-07-29T04:50:58;21.70;52.80
66598;DHT22;57424;53.128;6.406;2022-07-29T04:53:24;21.70;52.80
66598;DHT22;57424;53.128;6.406;2022-07-29T04:55:49;21.70;52.80
66598;DHT22;57424;53.128;6.406;2022-07-29T04:58:15;21.80;52.90
66598;DHT22;57424;53.128;6.406;2022-07-29T05:00:41;21.70;52.90
66598;DHT22;57424;53.128;6.406;2022-07-29T05:03:06;21.70;52.90
66598;DHT22;57424;53.128;6.406;2022-07-29T05:05:32;21.70;52.80
66598;DHT22;57424;53.128;6.406;2022-07-29T05:07:57;21.70;52.80
66598;DHT22;57424;53.128;6.406;2022-07-29T05:10:23;21.70;52.90
66598;DHT22;57424;53.128;6.406;2022-07-29T05:12:48;21.70;52.90
66598;DHT22;57424;53.128;6.406;2022-07-29T05:15:14;21.70;52.90
66598;DHT22;57424;53.128;6.406;2022-07-29T05:17:40;21.70;52.90
66598;DHT22;57424;53.128;6.406;2022-07-29T05:20:06;21.70;52.90
66598;DHT22;57424;53.128;6.406;2022-07-29T05:22:32;21.70;52.90
66598;DHT22;57424;53.128;6.406;2022-07-29T05:24:58;21.70;52.90
66598;DHT22;57424;53.128;6.406;2022-07-29T05:27:23;21.70;52.90
66598;DHT22;57424;53.128;6.406;2022-07-29T05:29:49;21.70;52.90
66598;DHT22;57424;53.128;6.406;2022-07-29T05:32:15;21.70;52.90
66598;DHT22;57424;53.128;6.406;2022-07-29T05:34:41;21.70;52.90
66598;DHT22;57424;53.128;6.406;2022-07-29T05:37:06;21.70;52.90
66598;DHT22;57424;53.128;6.406;2022-07-29T05:39:32;21.70;52.90
66598;DHT22;57424;53.128;6.406;2022-07-29T05:41:57;21.70;52.90
66598;DHT22;57424;53.128;6.406;2022-07-29T05:44:23;21.70;52.90
66598;DHT22;57424;53.128;6.406;2022-07-29T05:46:48;21.70;53.60
66598;DHT22;57424;53.128;6.406;2022-07-29T05:49:14;21.70;52.90
66598;DHT22;57424;53.128;6.406;2022-07-29T05:51:40;21.70;52.90
66598;DHT22;57424;53.128;6.406;2022-07-29T05:54:05;21.60;52.90
66598;DHT22;57424;53.128;6.406;2022-07-29T05:56:31;21.70;52.90
66598;DHT22;57424;53.128;6.406;2022-07-29T05:58:57;21.70;52.90
66598;DHT22;57424;53.128;6.406;2022-07-29T06:01:22;21.70;52.90
66598;DHT22;57424;53.128;6.406;2022-07-29T06:03:48;21.70;53.20
66598;DHT22;57424;53.128;6.406;2022-07-29T06:06:13;21.70;52.90
66598;DHT22;57424;53.128;6.406;2022-07-29T06:08:39;21.70;52.90
66598;DHT22;57424;53.128;6.406;2022-07-29T06:11:05;21.70;52.80
66598;DHT22;57424;53.128;6.406;2022-07-29T06:13:32;21.70;52.80
66598;DHT22;57424;53.128;6.406;2022-07-29T06:15:57;21.70;52.80
66598;DHT22;57424;53.128;6.406;2022-07-29T06:18:23;21.70;52.80
66598;DHT22;57424;53.128;6.406;2022-07-29T06:20:53;21.70;52.80
66598;DHT22;57424;53.128;6.406;2022-07-29T06:23:19;21.70;52.90
66598;DHT22;57424;53.128;6.406;2022-07-29T06:25:45;21.70;52.80
66598;DHT22;57424;53.128;6.406;2022-07-29T06:28:11;21.70;52.80
66598;DHT22;57424;53.128;6.406;2022-07-29T06:30:37;21.70;52.90
66598;DHT22;57424;53.128;6.406;2022-07-29T06:33:02;21.70;52.90
66598;DHT22;57424;53.128;6.406;2022-07-29T06:35:28;21.70;52.90
66598;DHT22;57424;53.128;6.406;2022-07-29T06:37:54;21.70;52.90
66598;DHT22;57424;53.128;6.406;2022-07-29T06:40:20;21.70;53.00
66598;DHT22;57424;53.128;6.406;2022-07-29T06:43:04;21.70;52.90
66598;DHT22;57424;53.128;6.406;2022-07-29T06:45:33;21.70;52.90
66598;DHT22;57424;53.128;6.406;2022-07-29T06:47:58;21.70;52.90
66598;DHT22;57424;53.128;6.406;2022-07-29T06:50:24;21.70;52.90
66598;DHT22;57424;53.128;6.406;2022-07-29T06:52:50;21.70;52.90
66598;DHT22;57424;53.128;6.406;2022-07-29T06:55:15;21.70;52.90
66598;DHT22;57424;53.128;6.406;2022-07-29T06:57:41;21.70;53.10
66598;DHT22;57424;53.128;6.406;2022-07-29T07:00:07;21.70;53.20
66598;DHT22;57424;53.128;6.406;2022-07-29T07:02:33;21.70;53.50
66598;DHT22;57424;53.128;6.406;2022-07-29T07:04:58;21.70;53.60
66598;DHT22;57424;53.128;6.406;2022-07-29T07:07:24;21.70;53.80
66598;DHT22;57424;53.128;6.406;2022-07-29T07:09:50;21.80;53.80
66598;DHT22;57424;53.128;6.406;2022-07-29T07:12:16;21.80;53.80
66598;DHT22;57424;53.128;6.406;2022-07-29T07:14:41;21.80;53.80
66598;DHT22;57424;53.128;6.406;2022-07-29T07:17:07;21.80;53.80
66598;DHT22;57424;53.128;6.406;2022-07-29T07:19:33;21.80;53.70
66598;DHT22;57424;53.128;6.406;2022-07-29T07:21:58;21.80;53.80
66598;DHT22;57424;53.128;6.406;2022-07-29T07:24:24;21.80;53.80
66598;DHT22;57424;53.128;6.406;2022-07-29T07:26:49;21.80;53.80
66598;DHT22;57424;53.128;6.406;2022-07-29T07:29:15;21.80;53.80
66598;DHT22;57424;53.128;6.406;2022-07-29T07:31:41;21.80;53.80
66598;DHT22;57424;53.128;6.406;2022-07-29T07:34:06;21.80;53.80
66598;DHT22;57424;53.128;6.406;2022-07-29T07:36:32;21.80;53.80
66598;DHT22;57424;53.128;6.406;2022-07-29T07:38:57;21.80;53.80
66598;DHT22;57424;53.128;6.406;2022-07-29T07:41:23;21.80;53.80
66598;DHT22;57424;53.128;6.406;2022-07-29T07:43:48;21.80;53.80
66598;DHT22;57424;53.128;6.406;2022-07-29T07:46:14;21.80;53.80
66598;DHT22;57424;53.128;6.406;2022-07-29T07:48:40;21.80;53.80
66598;DHT22;57424;53.128;6.406;2022-07-29T07:51:06;21.80;53.80
66598;DHT22;57424;53.128;6.406;2022-07-29T07:53:32;21.80;53.80
66598;DHT22;57424;53.128;6.406;2022-07-29T07:55:58;21.80;53.80
66598;DHT22;57424;53.128;6.406;2022-07-29T07:58:24;21.80;53.80
66598;DHT22;57424;53.128;6.406;2022-07-29T08:00:50;21.80;53.80
66598;DHT22;57424;53.128;6.406;2022-07-29T08:03:15;21.80;53.80
66598;DHT22;57424;53.128;6.406;2022-07-29T08:05:41;21.80;53.80
66598;DHT22;57424;53.128;6.406;2022-07-29T08:08:07;21.80;53.80
66598;DHT22;57424;53.128;6.406;2022-07-29T08:10:33;21.80;53.80
66598;DHT22;57424;53.128;6.406;2022-07-29T08:13:19;21.80;53.90
66598;DHT22;57424;53.128;6.406;2022-07-29T08:15:45;21.80;53.90
66598;DHT22;57424;53.128;6.406;2022-07-29T08:18:14;21.80;53.90
66598;DHT22;57424;53.128;6.406;2022-07-29T08:20:39;21.80;54.00
66598;DHT22;57424;53.128;6.406;2022-07-29T08:23:08;21.80;54.10
66598;DHT22;57424;53.128;6.406;2022-07-29T08:25:36;21.80;54.20
66598;DHT22;57424;53.128;6.406;2022-07-29T08:28:04;21.90;54.30
66598;DHT22;57424;53.128;6.406;2022-07-29T08:30:30;21.80;54.10
66598;DHT22;57424;53.128;6.406;2022-07-29T08:32:55;21.90;54.20
66598;DHT22;57424;53.128;6.406;2022-07-29T08:35:22;21.90;54.20
66598;DHT22;57424;53.128;6.406;2022-07-29T08:37:48;21.90;54.40
66598;DHT22;57424;53.128;6.406;2022-07-29T08:40:14;21.90;54.50
66598;DHT22;57424;53.128;6.406;2022-07-29T08:42:40;21.90;54.50
66598;DHT22;57424;53.128;6.406;2022-07-29T08:45:06;21.90;54.50
66598;DHT22;57424;53.128;6.406;2022-07-29T08:47:33;21.90;54.60
66598;DHT22;57424;53.128;6.406;2022-07-29T08:49:58;21.90;55.30
66598;DHT22;57424;53.128;6.406;2022-07-29T08:52:26;21.90;54.60
66598;DHT22;57424;53.128;6.406;2022-07-29T08:54:53;21.90;54.70
66598;DHT22;57424;53.128;6.406;2022-07-29T08:57:19;21.90;54.70
66598;DHT22;57424;53.128;6.406;2022-07-29T08:59:47;21.90;54.70
66598;DHT22;57424;53.128;6.406;2022-07-29T09:02:22;21.90;54.70
66598;DHT22;57424;53.128;6.406;2022-07-29T09:04:48;21.90;54.70
66598;DHT22;57424;53.128;6.406;2022-07-29T09:07:15;21.90;54.70
66598;DHT22;57424;53.128;6.406;2022-07-29T09:09:42;21.90;54.70
66598;DHT22;57424;53.128;6.406;2022-07-29T09:12:11;22.00;54.70
66598;DHT22;57424;53.128;6.406;2022-07-29T09:14:40;22.00;54.80
66598;DHT22;57424;53.128;6.406;2022-07-29T09:17:06;22.00;54.80
66598;DHT22;57424;53.128;6.406;2022-07-29T09:19:34;22.00;54.80
66598;DHT22;57424;53.128;6.406;2022-07-29T09:22:04;22.00;54.80
66598;DHT22;57424;53.128;6.406;2022-07-29T09:27:00;22.00;54.80
66598;DHT22;57424;53.128;6.406;2022-07-29T09:29:26;22.10;54.80
66598;DHT22;57424;53.128;6.406;2022-07-29T09:31:54;22.10;54.70
66598;DHT22;57424;53.128;6.406;2022-07-29T09:34:27;22.10;54.60
66598;DHT22;57424;53.128;6.406;2022-07-29T09:36:57;22.10;54.40
66598;DHT22;57424;53.128;6.406;2022-07-29T09:39:33;22.10;54.30
66598;DHT22;57424;53.128;6.406;2022-07-29T09:42:03;22.20;54.20
66598;DHT22;57424;53.128;6.406;2022-07-29T09:44:49;22.10;54.10
66598;DHT22;57424;53.128;6.406;2022-07-29T09:47:16;22.20;54.10
66598;DHT22;57424;53.128;6.406;2022-07-29T09:49:55;22.20;54.10
66598;DHT22;57424;53.128;6.406;2022-07-29T09:52:23;22.10;54.00
66598;DHT22;57424;53.128;6.406;2022-07-29T09:54:49;22.20;54.00
66598;DHT22;57424;53.128;6.406;2022-07-29T09:57:26;22.20;54.00
66598;DHT22;57424;53.128;6.406;2022-07-29T10:02:32;22.10;53.90
66598;DHT22;57424;53.128;6.406;2022-07-29T10:04:58;22.10;53.90
66598;DHT22;57424;53.128;6.406;2022-07-29T10:07:24;22.10;53.90
66598;DHT22;57424;53.128;6.406;2022-07-29T10:09:55;22.10;53.90
66598;DHT22;57424;53.128;6.406;2022-07-29T10:12:21;22.10;53.90
66598;DHT22;57424;53.128;6.406;2022-07-29T10:14:47;22.10;53.90
66598;DHT22;57424;53.128;6.406;2022-07-29T10:17:13;22.10;53.90
66598;DHT22;57424;53.128;6.406;2022-07-29T10:19:39;22.10;53.80
66598;DHT22;57424;53.128;6.406;2022-07-29T10:22:08;22.10;53.80
66598;DHT22;57424;53.128;6.406;2022-07-29T10:24:35;22.20;53.90
66598;DHT22;57424;53.128;6.406;2022-07-29T10:27:05;22.20;53.90
66598;DHT22;57424;53.128;6.406;2022-07-29T10:29:30;22.20;53.90
66598;DHT22;57424;53.128;6.406;2022-07-29T10:32:29;22.10;53.80
66598;DHT22;57424;53.128;6.406;2022-07-29T10:43:40;22.10;53.80
66598;DHT22;57424;53.128;6.406;2022-07-29T10:46:06;22.20;53.90
66598;DHT22;57424;53.128;6.406;2022-07-29T10:48:32;22.10;53.80
66598;DHT22;57424;53.128;6.406;2022-07-29T10:51:04;22.10;53.80
66598;DHT22;57424;53.128;6.406;2022-07-29T10:53:46;22.10;53.80
66598;DHT22;57424;53.128;6.406;2022-07-29T10:56:32;22.20;53.80
66598;DHT22;57424;53.128;6.406;2022-07-29T11:01:48;22.10;53.80
66598;DHT22;57424;53.128;6.406;2022-07-29T11:07:09;22.20;53.80
66598;DHT22;57424;53.128;6.406;2022-07-29T11:09:35;22.20;53.80
66598;DHT22;57424;53.128;6.406;2022-07-29T11:12:00;22.20;53.80
66598;DHT22;57424;53.128;6.406;2022-07-29T11:17:23;22.10;53.80
66598;DHT22;57424;53.128;6.406;2022-07-29T11:19:48;22.20;53.80
66598;DHT22;57424;53.128;6.406;2022-07-29T11:22:34;22.10;53.70
66598;DHT22;57424;53.128;6.406;2022-07-29T11:25:16;22.20;53.80
66598;DHT22;57424;53.128;6.406;2022-07-29T11:27:44;22.20;53.80
66598;DHT22;57424;53.128;6.406;2022-07-29T11:30:09;22.20;53.80
66598;DHT22;57424;53.128;6.406;2022-07-29T11:32:38;22.20;53.80
66598;DHT22;57424;53.128;6.406;2022-07-29T11:35:21;22.20;53.80
66598;DHT22;57424;53.128;6.406;2022-07-29T11:41:25;22.20;53.80
66598;DHT22;57424;53.128;6.406;2022-07-29T11:43:56;22.20;53.70
66598;DHT22;57424;53.128;6.406;2022-07-29T11:46:43;22.20;53.80
66598;DHT22;57424;53.128;6.406;2022-07-29T11:49:09;22.20;53.80
66598;DHT22;57424;53.128;6.406;2022-07-29T11:51:37;22.20;53.80
66598;DHT22;57424;53.128;6.406;2022-07-29T11:54:04;22.20;53.80
66598;DHT22;57424;53.128;6.406;2022-07-29T11:56:31;22.20;53.80
66598;DHT22;57424;53.128;6.406;2022-07-29T11:59:05;22.20;53.80
66598;DHT22;57424;53.128;6.406;2022-07-29T12:01:31;22.20;53.80
66598;DHT22;57424;53.128;6.406;2022-07-29T12:04:06;22.30;53.80
66598;DHT22;57424;53.128;6.406;2022-07-29T12:06:34;22.30;53.80
66598;DHT22;57424;53.128;6.406;2022-07-29T12:09:00;22.30;53.80
66598;DHT22;57424;53.128;6.406;2022-07-29T12:11:26;22.30;53.80
66598;DHT22;57424;53.128;6.406;2022-07-29T12:13:52;22.30;53.80
66598;DHT22;57424;53.128;6.406;2022-07-29T12:16:21;22.30;53.80
66598;DHT22;57424;53.128;6.406;2022-07-29T12:18:57;22.30;53.80
66598;DHT22;57424;53.128;6.406;2022-07-29T12:21:23;22.30;53.80
66598;DHT22;57424;53.128;6.406;2022-07-29T12:23:53;22.30;53.80
66598;DHT22;57424;53.128;6.406;2022-07-29T12:26:20;22.40;53.90
66598;DHT22;57424;53.128;6.406;2022-07-29T12:28:46;22.40;53.80
66598;DHT22;57424;53.128;6.406;2022-07-29T12:31:15;22.40;53.80
66598;DHT22;57424;53.128;6.406;2022-07-29T12:33:41;22.40;53.80
66598;DHT22;57424;53.128;6.406;2022-07-29T12:36:07;22.40;53.90
66598;DHT22;57424;53.128;6.406;2022-07-29T12:38:34;22.40;53.80
66598;DHT22;57424;53.128;6.406;2022-07-29T12:41:00;22.40;53.90
66598;DHT22;57424;53.128;6.406;2022-07-29T12:43:26;22.40;53.80
66598;DHT22;57424;53.128;6.406;2022-07-29T12:45:54;22.40;53.90
66598;DHT22;57424;53.128;6.406;2022-07-29T12:48:40;22.40;53.80
66598;DHT22;57424;53.128;6.406;2022-07-29T12:51:07;22.40;53.80
66598;DHT22;57424;53.128;6.406;2022-07-29T12:53:35;22.50;53.90
66598;DHT22;57424;53.128;6.406;2022-07-29T12:56:01;22.50;54.00
66598;DHT22;57424;53.128;6.406;2022-07-29T12:58:41;22.40;53.90
66598;DHT22;57424;53.128;6.406;2022-07-29T13:01:12;22.50;54.10
66598;DHT22;57424;53.128;6.406;2022-07-29T13:03:56;22.50;54.10
66598;DHT22;57424;53.128;6.406;2022-07-29T13:06:30;22.50;54.10
66598;DHT22;57424;53.128;6.406;2022-07-29T13:09:01;22.50;54.20
66598;DHT22;57424;53.128;6.406;2022-07-29T13:13:56;22.60;54.20
66598;DHT22;57424;53.128;6.406;2022-07-29T13:16:22;22.60;54.10
66598;DHT22;57424;53.128;6.406;2022-07-29T13:19:09;22.60;54.00
66598;DHT22;57424;53.128;6.406;2022-07-29T13:21:35;22.60;53.80
66598;DHT22;57424;53.128;6.406;2022-07-29T13:24:01;22.60;53.80
66598;DHT22;57424;53.128;6.406;2022-07-29T13:26:27;22.60;53.70
66598;DHT22;57424;53.128;6.406;2022-07-29T13:28:54;22.60;53.60
66598;DHT22;57424;53.128;6.406;2022-07-29T13:31:20;22.60;53.50
66598;DHT22;57424;53.128;6.406;2022-07-29T13:33:45;22.60;53.30
66598;DHT22;57424;53.128;6.406;2022-07-29T13:36:11;22.60;53.10
66598;DHT22;57424;53.128;6.406;2022-07-29T13:38:36;22.60;53.00
66598;DHT22;57424;53.128;6.406;2022-07-29T13:41:02;22.70;53.00
66598;DHT22;57424;53.128;6.406;2022-07-29T13:43:27;22.60;52.80
66598;DHT22;57424;53.128;6.406;2022-07-29T13:45:53;22.70;52.80
66598;DHT22;57424;53.128;6.406;2022-07-29T13:48:19;22.60;52.70
66598;DHT22;57424;53.128;6.406;2022-07-29T13:50:44;22.70;52.70
66598;DHT22;57424;53.128;6.406;2022-07-29T13:53:10;22.70;52.70
66598;DHT22;57424;53.128;6.406;2022-07-29T13:55:36;22.70;52.60
66598;DHT22;57424;53.128;6.406;2022-07-29T13:58:02;22.70;52.50
66598;DHT22;57424;53.128;6.406;2022-07-29T14:00:28;22.70;52.40
66598;DHT22;57424;53.128;6.406;2022-07-29T14:02:53;22.80;52.40
66598;DHT22;57424;53.128;6.406;2022-07-29T14:05:19;22.70;52.30
66598;DHT22;57424;53.128;6.406;2022-07-29T14:07:45;22.70;52.30
66598;DHT22;57424;53.128;6.406;2022-07-29T14:10:10;22.80;52.20
66598;DHT22;57424;53.128;6.406;2022-07-29T14:12:36;22.80;52.10
66598;DHT22;57424;53.128;6.406;2022-07-29T14:15:02;22.80;52.00
66598;DHT22;57424;53.128;6.406;2022-07-29T14:17:28;22.80;52.60
66598;DHT22;57424;53.128;6.406;2022-07-29T14:19:53;22.80;51.70
66598;DHT22;57424;53.128;6.406;2022-07-29T14:22:19;22.80;51.60
66598;DHT22;57424;53.128;6.406;2022-07-29T14:24:45;22.80;51.50
66598;DHT22;57424;53.128;6.406;2022-07-29T14:27:10;22.80;51.40
66598;DHT22;57424;53.128;6.406;2022-07-29T14:29:37;22.80;51.40
66598;DHT22;57424;53.128;6.406;2022-07-29T14:32:02;22.80;51.40
66598;DHT22;57424;53.128;6.406;2022-07-29T14:34:28;22.80;51.30
66598;DHT22;57424;53.128;6.406;2022-07-29T14:36:54;22.80;51.30
66598;DHT22;57424;53.128;6.406;2022-07-29T14:39:21;22.90;51.30
66598;DHT22;57424;53.128;6.406;2022-07-29T14:41:48;22.90;51.30
66598;DHT22;57424;53.128;6.406;2022-07-29T14:44:14;22.90;51.40
66598;DHT22;57424;53.128;6.406;2022-07-29T14:46:39;22.90;51.40
66598;DHT22;57424;53.128;6.406;2022-07-29T14:49:05;22.90;51.40
66598;DHT22;57424;53.128;6.406;2022-07-29T14:51:31;22.90;52.10
66598;DHT22;57424;53.128;6.406;2022-07-29T14:53:57;22.90;51.40
66598;DHT22;57424;53.128;6.406;2022-07-29T14:56:23;22.90;51.30
66598;DHT22;57424;53.128;6.406;2022-07-29T14:58:48;22.90;51.30
66598;DHT22;57424;53.128;6.406;2022-07-29T15:01:14;22.90;51.20
66598;DHT22;57424;53.128;6.406;2022-07-29T15:03:40;22.90;51.10
66598;DHT22;57424;53.128;6.406;2022-07-29T15:06:05;23.00;51.20
66598;DHT22;57424;53.128;6.406;2022-07-29T15:08:31;23.00;51.20
66598;DHT22;57424;53.128;6.406;2022-07-29T15:10:56;23.00;51.20
66598;DHT22;57424;53.128;6.406;2022-07-29T15:13:26;23.00;51.00
66598;DHT22;57424;53.128;6.406;2022-07-29T15:15:52;23.00;51.00
66598;DHT22;57424;53.128;6.406;2022-07-29T15:18:18;23.00;50.90
66598;DHT22;57424;53.128;6.406;2022-07-29T15:20:43;23.00;50.80
66598;DHT22;57424;53.128;6.406;2022-07-29T15:23:11;23.10;50.80
66598;DHT22;57424;53.128;6.406;2022-07-29T15:25:38;23.10;50.80
66598;DHT22;57424;53.128;6.406;2022-07-29T15:28:05;23.10;50.80
66598;DHT22;57424;53.128;6.406;2022-07-29T15:30:33;23.10;50.90
66598;DHT22;57424;53.128;6.406;2022-07-29T15:32:59;23.10;50.90
66598;DHT22;57424;53.128;6.406;2022-07-29T15:35:24;23.10;51.00
66598;DHT22;57424;53.128;6.406;2022-07-29T15:37:50;23.10;51.00
66598;DHT22;57424;53.128;6.406;2022-07-29T15:40:16;23.10;51.00
66598;DHT22;57424;53.128;6.406;2022-07-29T15:42:41;23.10;51.00
66598;DHT22;57424;53.128;6.406;2022-07-29T15:45:07;23.10;51.10
66598;DHT22;57424;53.128;6.406;2022-07-29T15:47:35;23.10;51.10
66598;DHT22;57424;53.128;6.406;2022-07-29T15:50:00;23.10;51.10
66598;DHT22;57424;53.128;6.406;2022-07-29T15:52:26;23.20;51.20
66598;DHT22;57424;53.128;6.406;2022-07-29T15:54:53;23.20;51.10
66598;DHT22;57424;53.128;6.406;2022-07-29T15:57:19;23.20;51.00
66598;DHT22;57424;53.128;6.406;2022-07-29T15:59:45;23.20;51.00
66598;DHT22;57424;53.128;6.406;2022-07-29T16:02:10;23.20;50.90
66598;DHT22;57424;53.128;6.406;2022-07-29T16:04:36;23.20;51.00
66598;DHT22;57424;53.128;6.406;2022-07-29T16:07:02;23.20;51.00
66598;DHT22;57424;53.128;6.406;2022-07-29T16:09:28;23.20;51.00
66598;DHT22;57424;53.128;6.406;2022-07-29T16:11:53;23.20;50.90
66598;DHT22;57424;53.128;6.406;2022-07-29T16:14:20;23.30;51.00